sensor_id;sensor_type;location;lat;lon;timestamp;temperature;humidity
37300;DHT22;23184;51.902;12.836;2023-04-06T00:01:24;0.60;99.90
37300;DHT22;23184;51.902;12.836;2023-04-06T00:03:50;0.60;99.90
37300;DHT22;23184;51.902;12.836;2023-04-06T00:06:16;0.60;99.90
37300;DHT22;23184;51.902;12.836;2023-04-06T00:08:41;0.50;99.90
37300;DHT22;23184;51.902;12.836;2023-04-06T00:11:07;0.60;99.90
37300;DHT22;23184;51.902;12.836;2023-04-06T00:13:32;0.50;99.90
37300;DHT22;23184;51.902;12.836;2023-04-06T00:15:58;0.50;99.90
37300;DHT22;23184;51.902;12.836;2023-04-06T00:18:24;0.50;99.90
37300;DHT22;23184;51.902;12.836;2023-04-06T00:20:49;0.50;99.90
37300;DHT22;23184;51.902;12.836;2023-04-06T00:23:16;0.50;99.90
37300;DHT22;23184;51.902;12.836;2023-04-06T00:25:41;0.40;99.90
37300;DHT22;23184;51.902;12.836;2023-04-06T00:28:07;0.40;99.90
37300;DHT22;23184;51.902;12.836;2023-04-06T00:30:32;0.30;99.90
37300;DHT22;23184;51.902;12.836;2023-04-06T00:32:58;0.20;99.90
37300;DHT22;23184;51.902;12.836;2023-04-06T00:35:23;0.10;99.90
37300;DHT22;23184;51.902;12.836;2023-04-06T00:37:49;0.10;99.90
37300;DHT22;23184;51.902;12.836;2023-04-06T00:40:15;0.00;99.90
37300;DHT22;23184;51.902;12.836;2023-04-06T00:42:41;-0.10;99.90
37300;DHT22;23184;51.902;12.836;2023-04-06T00:45:07;-0.20;99.90
37300;DHT22;23184;51.902;12.836;2023-04-06T00:47:33;-0.20;99.90
37300;DHT22;23184;51.902;12.836;2023-04-06T00:49:58;-0.20;99.90
37300;DHT22;23184;51.902;12.836;2023-04-06T00:52:24;-0.20;99.90
37300;DHT22;23184;51.902;12.836;2023-04-06T00:54:50;-0.20;99.90
37300;DHT22;23184;51.902;12.836;2023-04-06T00:57:16;-0.20;99.90
37300;DHT22;23184;51.902;12.836;2023-04-06T00:59:42;-0.10;99.90
37300;DHT22;23184;51.902;12.836;2023-04-06T01:02:08;-0.10;99.90
37300;DHT22;23184;51.902;12.836;2023-04-06T01:04:34;-0.10;99.90
37300;DHT22;23184;51.902;12.836;2023-04-06T01:06:59;-0.10;99.90
37300;DHT22;23184;51.902;12.836;2023-04-06T01:09:27;-0.10;99.90
37300;DHT22;23184;51.902;12.836;2023-04-06T01:11:53;-0.10;99.90
37300;DHT22;23184;51.902;12.836;2023-04-06T01:14:19;-0.10;99.90
37300;DHT22;23184;51.902;12.836;2023-04-06T01:16:44;-0.10;99.90
37300;DHT22;23184;51.902;12.836;2023-04-06T01:19:11;-0.10;99.90
37300;DHT22;23184;51.902;12.836;2023-04-06T01:21:38;-0.20;99.90
37300;DHT22;23184;51.902;12.836;2023-04-06T01:24:04;-0.20;99.90
37300;DHT22;23184;51.902;12.836;2023-04-06T01:26:30;-0.20;99.90
37300;DHT22;23184;51.902;12.836;2023-04-06T01:28:56;-0.20;99.90
37300;DHT22;23184;51.902;12.836;2023-04-06T01:31:21;-0.20;99.90
37300;DHT22;23184;51.902;12.836;2023-04-06T01:33:47;-0.20;99.90
37300;DHT22;23184;51.902;12.836;2023-04-06T01:36:13;-0.10;99.90
37300;DHT22;23184;51.902;12.836;2023-04-06T01:38:38;-0.20;99.90
37300;DHT22;23184;51.902;12.836;2023-04-06T01:41:04;-0.30;99.90
37300;DHT22;23184;51.902;12.836;2023-04-06T01:43:30;-0.30;99.90
37300;DHT22;23184;51.902;12.836;2023-04-06T01:45:55;-0.30;99.90
37300;DHT22;23184;51.902;12.836;2023-04-06T01:48:21;-0.30;99.90
37300;DHT22;23184;51.902;12.836;2023-04-06T01:50:47;-0.30;99.90
37300;DHT22;23184;51.902;12.836;2023-04-06T01:53:12;-0.30;99.90
37300;DHT22;23184;51.902;12.836;2023-04-06T01:55:38;-0.30;99.90
37300;DHT22;23184;51.902;12.836;2023-04-06T01:58:03;-0.30;99.90
37300;DHT22;23184;51.902;12.836;2023-04-06T02:00:29;-0.30;99.90
37300;DHT22;23184;51.902;12.836;2023-04-06T02:02:54;-0.30;99.90
37300;DHT22;23184;51.902;12.836;2023-04-06T02:05:20;-0.40;99.90
37300;DHT22;23184;51.902;12.836;2023-04-06T02:07:46;-0.40;99.90
37300;DHT22;23184;51.902;12.836;2023-04-06T02:10:12;-0.40;99.90
37300;DHT22;23184;51.902;12.836;2023-04-06T02:12:38;-0.40;99.90
37300;DHT22;23184;51.902;12.836;2023-04-06T02:15:04;-0.40;99.90
37300;DHT22;23184;51.902;12.836;2023-04-06T02:17:30;-0.50;99.90
37300;DHT22;23184;51.902;12.836;2023-04-06T02:19:55;-0.60;99.90
37300;DHT22;23184;51.902;12.836;2023-04-06T02:22:21;-0.60;99.90
37300;DHT22;23184;51.902;12.836;2023-04-06T02:24:46;-0.60;99.90
37300;DHT22;23184;51.902;12.836;2023-04-06T02:27:14;-0.50;99.90
37300;DHT22;23184;51.902;12.836;2023-04-06T02:29:40;-0.50;99.90
37300;DHT22;23184;51.902;12.836;2023-04-06T02:32:05;-0.50;99.90
37300;DHT22;23184;51.902;12.836;2023-04-06T02:34:31;-0.50;99.90
37300;DHT22;23184;51.902;12.836;2023-04-06T02:36:56;-0.50;99.90
37300;DHT22;23184;51.902;12.836;2023-04-06T02:39:22;-0.50;99.90
37300;DHT22;23184;51.902;12.836;2023-04-06T02:41:48;-0.50;99.90
37300;DHT22;23184;51.902;12.836;2023-04-06T02:44:13;-0.50;99.90
37300;DHT22;23184;51.902;12.836;2023-04-06T02:46:39;-0.50;99.90
37300;DHT22;23184;51.902;12.836;2023-04-06T02:49:05;-0.50;99.90
37300;DHT22;23184;51.902;12.836;2023-04-06T02:51:30;-0.50;99.90
37300;DHT22;23184;51.902;12.836;2023-04-06T02:53:56;-0.50;99.90
37300;DHT22;23184;51.902;12.836;2023-04-06T02:56:21;-0.70;99.90
37300;DHT22;23184;51.902;12.836;2023-04-06T02:58:47;-0.70;99.90
37300;DHT22;23184;51.902;12.836;2023-04-06T03:01:13;-0.70;99.90
37300;DHT22;23184;51.902;12.836;2023-04-06T03:03:38;-0.80;99.90
37300;DHT22;23184;51.902;12.836;2023-04-06T03:06:04;-0.80;99.90
37300;DHT22;23184;51.902;12.836;2023-04-06T03:08:30;-0.80;99.90
37300;DHT22;23184;51.902;12.836;2023-04-06T03:10:55;-0.80;99.90
37300;DHT22;23184;51.902;12.836;2023-04-06T03:13:21;-0.70;99.90
37300;DHT22;23184;51.902;12.836;2023-04-06T03:15:46;-0.70;99.90
37300;DHT22;23184;51.902;12.836;2023-04-06T03:18:12;-0.80;99.90
37300;DHT22;23184;51.902;12.836;2023-04-06T03:20:37;-0.80;99.90
37300;DHT22;23184;51.902;12.836;2023-04-06T03:23:03;-0.70;99.90
37300;DHT22;23184;51.902;12.836;2023-04-06T03:25:29;-0.70;99.90
37300;DHT22;23184;51.902;12.836;2023-04-06T03:27:55;-0.70;99.90
37300;DHT22;23184;51.902;12.836;2023-04-06T03:30:21;-0.80;99.90
37300;DHT22;23184;51.902;12.836;2023-04-06T03:32:46;-0.70;99.90
37300;DHT22;23184;51.902;12.836;2023-04-06T03:35:12;-0.80;99.90
37300;DHT22;23184;51.902;12.836;2023-04-06T03:37:38;-0.80;99.90
37300;DHT22;23184;51.902;12.836;2023-04-06T03:40:04;-0.80;99.90
37300;DHT22;23184;51.902;12.836;2023-04-06T03:42:30;-0.80;99.90
37300;DHT22;23184;51.902;12.836;2023-04-06T03:44:56;-0.80;99.90
37300;DHT22;23184;51.902;12.836;2023-04-06T03:47:22;-0.90;99.90
37300;DHT22;23184;51.902;12.836;2023-04-06T03:49:47;-0.90;99.90
37300;DHT22;23184;51.902;12.836;2023-04-06T03:52:13;-0.90;99.90
37300;DHT22;23184;51.902;12.836;2023-04-06T03:54:38;-0.90;99.90
37300;DHT22;23184;51.902;12.836;2023-04-06T03:57:04;-0.90;99.90
37300;DHT22;23184;51.902;12.836;2023-04-06T03:59:29;-0.90;99.90
37300;DHT22;23184;51.902;12.836;2023-04-06T04:01:55;-0.90;99.90
37300;DHT22;23184;51.902;12.836;2023-04-06T04:04:21;-0.90;99.90
37300;DHT22;23184;51.902;12.836;2023-04-06T04:06:46;-0.90;99.90
37300;DHT22;23184;51.902;12.836;2023-04-06T04:09:12;-0.90;99.90
37300;DHT22;23184;51.902;12.836;2023-04-06T04:11:37;-1.10;99.90
37300;DHT22;23184;51.902;12.836;2023-04-06T04:14:03;-1.30;99.90
37300;DHT22;23184;51.902;12.836;2023-04-06T04:16:29;-1.30;99.90
37300;DHT22;23184;51.902;12.836;2023-04-06T04:18:54;-1.40;99.90
37300;DHT22;23184;51.902;12.836;2023-04-06T04:21:20;-1.40;99.90
37300;DHT22;23184;51.902;12.836;2023-04-06T04:23:45;-1.50;99.90
37300;DHT22;23184;51.902;12.836;2023-04-06T04:26:11;-1.50;99.90
37300;DHT22;23184;51.902;12.836;2023-04-06T04:28:36;-1.50;99.90
37300;DHT22;23184;51.902;12.836;2023-04-06T04:31:02;-1.50;99.90
37300;DHT22;23184;51.902;12.836;2023-04-06T04:33:27;-1.60;99.90
37300;DHT22;23184;51.902;12.836;2023-04-06T04:35:53;-1.60;99.90
37300;DHT22;23184;51.902;12.836;2023-04-06T04:38:18;-1.60;99.90
37300;DHT22;23184;51.902;12.836;2023-04-06T04:40:44;-1.50;99.90
37300;DHT22;23184;51.902;12.836;2023-04-06T04:43:10;-1.50;99.90
37300;DHT22;23184;51.902;12.836;2023-04-06T04:45:36;-1.40;99.90
37300;DHT22;23184;51.902;12.836;2023-04-06T04:48:01;-1.30;99.90
37300;DHT22;23184;51.902;12.836;2023-04-06T04:50:27;-1.30;99.90
37300;DHT22;23184;51.902;12.836;2023-04-06T04:52:52;-1.30;99.90
37300;DHT22;23184;51.902;12.836;2023-04-06T04:55:18;-1.30;99.90
37300;DHT22;23184;51.902;12.836;2023-04-06T04:57:43;-1.30;99.90
37300;DHT22;23184;51.902;12.836;2023-04-06T05:00:09;-1.30;99.90
37300;DHT22;23184;51.902;12.836;2023-04-06T05:02:35;-1.30;99.90
37300;DHT22;23184;51.902;12.836;2023-04-06T05:05:00;-1.20;99.90
37300;DHT22;23184;51.902;12.836;2023-04-06T05:07:26;-1.20;99.90
37300;DHT22;23184;51.902;12.836;2023-04-06T05:09:52;-1.20;99.90
37300;DHT22;23184;51.902;12.836;2023-04-06T05:12:18;-1.20;99.90
37300;DHT22;23184;51.902;12.836;2023-04-06T05:14:44;-1.20;99.90
37300;DHT22;23184;51.902;12.836;2023-04-06T05:17:09;-1.10;99.90
37300;DHT22;23184;51.902;12.836;2023-04-06T05:19:35;-1.10;99.90
37300;DHT22;23184;51.902;12.836;2023-04-06T05:22:00;-1.00;99.90
37300;DHT22;23184;51.902;12.836;2023-04-06T05:24:26;-1.00;99.90
37300;DHT22;23184;51.902;12.836;2023-04-06T05:26:52;-0.90;99.90
37300;DHT22;23184;51.902;12.836;2023-04-06T05:29:18;-0.90;99.90
37300;DHT22;23184;51.902;12.836;2023-04-06T05:31:44;-0.80;99.90
37300;DHT22;23184;51.902;12.836;2023-04-06T05:34:09;-0.70;99.90
37300;DHT22;23184;51.902;12.836;2023-04-06T05:36:35;-0.60;99.90
37300;DHT22;23184;51.902;12.836;2023-04-06T05:39:01;-0.50;99.90
37300;DHT22;23184;51.902;12.836;2023-04-06T05:41:26;-0.40;99.90
37300;DHT22;23184;51.902;12.836;2023-04-06T05:43:52;-0.30;99.90
37300;DHT22;23184;51.902;12.836;2023-04-06T05:46:18;-0.10;99.90
37300;DHT22;23184;51.902;12.836;2023-04-06T05:48:43;0.10;99.90
37300;DHT22;23184;51.902;12.836;2023-04-06T05:51:09;0.20;99.90
37300;DHT22;23184;51.902;12.836;2023-04-06T05:53:34;0.40;99.90
37300;DHT22;23184;51.902;12.836;2023-04-06T05:56:03;0.60;99.90
37300;DHT22;23184;51.902;12.836;2023-04-06T05:58:29;0.10;99.90
37300;DHT22;23184;51.902;12.836;2023-04-06T06:00:58;0.20;99.90
37300;DHT22;23184;51.902;12.836;2023-04-06T06:03:24;0.50;99.90
37300;DHT22;23184;51.902;12.836;2023-04-06T06:05:49;0.40;99.90
37300;DHT22;23184;51.902;12.836;2023-04-06T06:08:15;0.60;99.90
37300;DHT22;23184;51.902;12.836;2023-04-06T06:10:40;0.70;99.90
37300;DHT22;23184;51.902;12.836;2023-04-06T06:13:06;1.00;99.90
37300;DHT22;23184;51.902;12.836;2023-04-06T06:15:32;1.20;99.90
37300;DHT22;23184;51.902;12.836;2023-04-06T06:17:57;1.10;99.90
37300;DHT22;23184;51.902;12.836;2023-04-06T06:20:23;1.40;99.90
37300;DHT22;23184;51.902;12.836;2023-04-06T06:22:48;1.50;99.90
37300;DHT22;23184;51.902;12.836;2023-04-06T06:25:14;1.90;99.90
37300;DHT22;23184;51.902;12.836;2023-04-06T06:27:39;2.30;99.90
37300;DHT22;23184;51.902;12.836;2023-04-06T06:30:05;2.70;99.90
37300;DHT22;23184;51.902;12.836;2023-04-06T06:32:32;3.10;99.90
37300;DHT22;23184;51.902;12.836;2023-04-06T06:34:57;3.30;99.90
37300;DHT22;23184;51.902;12.836;2023-04-06T06:37:23;3.80;99.90
37300;DHT22;23184;51.902;12.836;2023-04-06T06:39:48;4.20;99.90
37300;DHT22;23184;51.902;12.836;2023-04-06T06:42:14;4.40;99.90
37300;DHT22;23184;51.902;12.836;2023-04-06T06:44:40;4.60;99.90
37300;DHT22;23184;51.902;12.836;2023-04-06T06:47:05;4.60;99.90
37300;DHT22;23184;51.902;12.836;2023-04-06T06:49:30;4.80;99.90
37300;DHT22;23184;51.902;12.836;2023-04-06T06:51:56;5.00;99.90
37300;DHT22;23184;51.902;12.836;2023-04-06T06:54:21;5.20;99.90
37300;DHT22;23184;51.902;12.836;2023-04-06T06:56:47;5.40;99.90
37300;DHT22;23184;51.902;12.836;2023-04-06T06:59:12;5.80;99.90
37300;DHT22;23184;51.902;12.836;2023-04-06T07:01:38;5.70;99.90
37300;DHT22;23184;51.902;12.836;2023-04-06T07:04:04;5.30;99.90
37300;DHT22;23184;51.902;12.836;2023-04-06T07:06:29;5.00;99.90
37300;DHT22;23184;51.902;12.836;2023-04-06T07:08:55;4.80;99.90
37300;DHT22;23184;51.902;12.836;2023-04-06T07:11:20;4.90;99.90
37300;DHT22;23184;51.902;12.836;2023-04-06T07:13:46;5.50;99.90
37300;DHT22;23184;51.902;12.836;2023-04-06T07:16:11;5.20;99.90
37300;DHT22;23184;51.902;12.836;2023-04-06T07:18:37;5.20;99.90
37300;DHT22;23184;51.902;12.836;2023-04-06T07:21:02;5.10;99.90
37300;DHT22;23184;51.902;12.836;2023-04-06T07:23:28;5.10;99.90
37300;DHT22;23184;51.902;12.836;2023-04-06T07:25:53;5.00;99.90
37300;DHT22;23184;51.902;12.836;2023-04-06T07:28:20;4.90;99.90
37300;DHT22;23184;51.902;12.836;2023-04-06T07:30:45;5.60;99.90
37300;DHT22;23184;51.902;12.836;2023-04-06T07:33:11;6.10;99.90
37300;DHT22;23184;51.902;12.836;2023-04-06T07:35:37;6.60;99.90
37300;DHT22;23184;51.902;12.836;2023-04-06T07:38:03;7.30;99.90
37300;DHT22;23184;51.902;12.836;2023-04-06T07:40:28;7.90;99.90
37300;DHT22;23184;51.902;12.836;2023-04-06T07:42:54;8.30;99.90
37300;DHT22;23184;51.902;12.836;2023-04-06T07:45:19;8.40;99.90
37300;DHT22;23184;51.902;12.836;2023-04-06T07:47:45;8.50;99.90
37300;DHT22;23184;51.902;12.836;2023-04-06T07:50:11;8.70;99.90
37300;DHT22;23184;51.902;12.836;2023-04-06T07:52:37;9.30;99.90
37300;DHT22;23184;51.902;12.836;2023-04-06T07:55:03;9.50;99.90
37300;DHT22;23184;51.902;12.836;2023-04-06T07:57:29;10.00;99.90
37300;DHT22;23184;51.902;12.836;2023-04-06T07:59:54;9.80;99.90
37300;DHT22;23184;51.902;12.836;2023-04-06T08:02:20;9.90;99.50
37300;DHT22;23184;51.902;12.836;2023-04-06T08:04:45;9.60;98.30
37300;DHT22;23184;51.902;12.836;2023-04-06T08:07:11;9.20;99.70
37300;DHT22;23184;51.902;12.836;2023-04-06T08:09:37;10.00;99.90
37300;DHT22;23184;51.902;12.836;2023-04-06T08:12:03;10.50;99.90
37300;DHT22;23184;51.902;12.836;2023-04-06T08:14:28;11.30;96.50
37300;DHT22;23184;51.902;12.836;2023-04-06T08:16:54;11.70;93.30
37300;DHT22;23184;51.902;12.836;2023-04-06T08:19:19;12.00;92.00
37300;DHT22;23184;51.902;12.836;2023-04-06T08:21:45;12.60;89.80
37300;DHT22;23184;51.902;12.836;2023-04-06T08:24:12;12.00;86.70
37300;DHT22;23184;51.902;12.836;2023-04-06T08:26:38;11.10;86.60
37300;DHT22;23184;51.902;12.836;2023-04-06T08:29:03;10.80;84.50
37300;DHT22;23184;51.902;12.836;2023-04-06T08:31:30;11.30;86.30
37300;DHT22;23184;51.902;12.836;2023-04-06T08:33:56;11.40;84.20
37300;DHT22;23184;51.902;12.836;2023-04-06T08:36:21;11.20;81.70
37300;DHT22;23184;51.902;12.836;2023-04-06T08:38:48;11.40;86.50
37300;DHT22;23184;51.902;12.836;2023-04-06T08:41:15;11.40;84.20
37300;DHT22;23184;51.902;12.836;2023-04-06T08:43:47;11.80;83.50
37300;DHT22;23184;51.902;12.836;2023-04-06T08:46:13;12.10;80.30
37300;DHT22;23184;51.902;12.836;2023-04-06T08:48:41;12.20;77.90
37300;DHT22;23184;51.902;12.836;2023-04-06T08:51:08;12.30;76.90
37300;DHT22;23184;51.902;12.836;2023-04-06T08:53:34;12.40;74.70
37300;DHT22;23184;51.902;12.836;2023-04-06T08:56:00;11.80;74.40
37300;DHT22;23184;51.902;12.836;2023-04-06T08:58:28;12.00;73.00
37300;DHT22;23184;51.902;12.836;2023-04-06T09:00:56;11.70;70.80
37300;DHT22;23184;51.902;12.836;2023-04-06T09:03:22;11.70;74.60
37300;DHT22;23184;51.902;12.836;2023-04-06T09:05:47;11.80;71.50
37300;DHT22;23184;51.902;12.836;2023-04-06T09:08:13;12.30;69.40
37300;DHT22;23184;51.902;12.836;2023-04-06T09:10:42;12.50;70.20
37300;DHT22;23184;51.902;12.836;2023-04-06T09:13:08;10.70;75.40
37300;DHT22;23184;51.902;12.836;2023-04-06T09:15:34;11.30;74.10
37300;DHT22;23184;51.902;12.836;2023-04-06T09:18:00;12.00;74.50
37300;DHT22;23184;51.902;12.836;2023-04-06T09:20:26;11.80;70.60
37300;DHT22;23184;51.902;12.836;2023-04-06T09:22:54;11.80;71.70
37300;DHT22;23184;51.902;12.836;2023-04-06T09:25:22;11.90;69.80
37300;DHT22;23184;51.902;12.836;2023-04-06T09:27:49;12.30;69.80
37300;DHT22;23184;51.902;12.836;2023-04-06T09:30:23;12.00;66.20
37300;DHT22;23184;51.902;12.836;2023-04-06T09:32:51;11.60;69.20
37300;DHT22;23184;51.902;12.836;2023-04-06T09:35:17;11.40;71.70
37300;DHT22;23184;51.902;12.836;2023-04-06T09:37:46;12.30;66.50
37300;DHT22;23184;51.902;12.836;2023-04-06T09:40:13;12.40;64.10
37300;DHT22;23184;51.902;12.836;2023-04-06T09:42:41;12.90;64.70
37300;DHT22;23184;51.902;12.836;2023-04-06T09:45:07;12.30;62.50
37300;DHT22;23184;51.902;12.836;2023-04-06T09:47:36;12.10;62.90
37300;DHT22;23184;51.902;12.836;2023-04-06T09:50:03;12.30;64.20
37300;DHT22;23184;51.902;12.836;2023-04-06T09:52:33;12.90;64.40
37300;DHT22;23184;51.902;12.836;2023-04-06T09:55:04;13.10;62.90
37300;DHT22;23184;51.902;12.836;2023-04-06T10:00:07;11.90;64.70
37300;DHT22;23184;51.902;12.836;2023-04-06T10:02:54;11.20;64.50
37300;DHT22;23184;51.902;12.836;2023-04-06T10:05:42;12.50;65.00
37300;DHT22;23184;51.902;12.836;2023-04-06T10:08:10;13.10;62.20
37300;DHT22;23184;51.902;12.836;2023-04-06T10:10:36;13.50;62.70
37300;DHT22;23184;51.902;12.836;2023-04-06T10:13:02;12.70;63.10
37300;DHT22;23184;51.902;12.836;2023-04-06T10:15:28;13.30;60.40
37300;DHT22;23184;51.902;12.836;2023-04-06T10:17:55;13.60;59.90
37300;DHT22;23184;51.902;12.836;2023-04-06T10:20:25;13.50;59.10
37300;DHT22;23184;51.902;12.836;2023-04-06T10:23:06;13.70;57.50
37300;DHT22;23184;51.902;12.836;2023-04-06T10:25:33;14.10;58.00
37300;DHT22;23184;51.902;12.836;2023-04-06T10:28:09;15.00;58.60
37300;DHT22;23184;51.902;12.836;2023-04-06T10:30:42;15.10;56.50
37300;DHT22;23184;51.902;12.836;2023-04-06T10:33:19;15.70;55.90
37300;DHT22;23184;51.902;12.836;2023-04-06T10:35:45;15.30;55.60
37300;DHT22;23184;51.902;12.836;2023-04-06T10:38:11;16.00;55.40
37300;DHT22;23184;51.902;12.836;2023-04-06T10:40:40;15.70;55.80
37300;DHT22;23184;51.902;12.836;2023-04-06T10:43:28;16.10;57.00
37300;DHT22;23184;51.902;12.836;2023-04-06T10:46:00;16.50;54.70
37300;DHT22;23184;51.902;12.836;2023-04-06T10:48:43;13.70;61.30
37300;DHT22;23184;51.902;12.836;2023-04-06T10:51:15;13.10;63.90
37300;DHT22;23184;51.902;12.836;2023-04-06T10:53:42;13.00;65.50
37300;DHT22;23184;51.902;12.836;2023-04-06T10:56:10;12.50;63.20
37300;DHT22;23184;51.902;12.836;2023-04-06T10:58:44;12.40;66.50
37300;DHT22;23184;51.902;12.836;2023-04-06T11:01:11;13.60;62.60
37300;DHT22;23184;51.902;12.836;2023-04-06T11:03:56;15.30;60.20
37300;DHT22;23184;51.902;12.836;2023-04-06T11:06:24;16.30;54.50
37300;DHT22;23184;51.902;12.836;2023-04-06T11:08:51;16.40;53.20
37300;DHT22;23184;51.902;12.836;2023-04-06T11:11:18;17.20;52.30
37300;DHT22;23184;51.902;12.836;2023-04-06T11:13:55;17.70;51.10
37300;DHT22;23184;51.902;12.836;2023-04-06T11:16:22;17.60;53.90
37300;DHT22;23184;51.902;12.836;2023-04-06T11:18:54;16.80;52.30
37300;DHT22;23184;51.902;12.836;2023-04-06T11:21:38;17.40;52.80
37300;DHT22;23184;51.902;12.836;2023-04-06T11:24:11;17.80;50.80
37300;DHT22;23184;51.902;12.836;2023-04-06T11:26:42;18.60;52.10
37300;DHT22;23184;51.902;12.836;2023-04-06T11:29:09;17.30;49.70
37300;DHT22;23184;51.902;12.836;2023-04-06T11:32:04;16.00;51.50
37300;DHT22;23184;51.902;12.836;2023-04-06T11:34:33;15.10;56.00
37300;DHT22;23184;51.902;12.836;2023-04-06T11:37:01;16.70;55.40
37300;DHT22;23184;51.902;12.836;2023-04-06T11:39:28;16.80;55.90
37300;DHT22;23184;51.902;12.836;2023-04-06T11:41:58;17.60;52.30
37300;DHT22;23184;51.902;12.836;2023-04-06T11:44:42;18.20;50.20
37300;DHT22;23184;51.902;12.836;2023-04-06T11:47:10;18.40;50.00
37300;DHT22;23184;51.902;12.836;2023-04-06T11:49:40;18.60;49.80
37300;DHT22;23184;51.902;12.836;2023-04-06T11:52:22;16.70;49.40
37300;DHT22;23184;51.902;12.836;2023-04-06T11:54:50;17.80;51.00
37300;DHT22;23184;51.902;12.836;2023-04-06T11:57:17;18.60;49.40
37300;DHT22;23184;51.902;12.836;2023-04-06T11:59:43;18.60;51.60
37300;DHT22;23184;51.902;12.836;2023-04-06T12:02:09;15.30;52.30
37300;DHT22;23184;51.902;12.836;2023-04-06T12:04:35;15.90;54.80
37300;DHT22;23184;51.902;12.836;2023-04-06T12:07:00;17.60;52.70
37300;DHT22;23184;51.902;12.836;2023-04-06T12:09:26;18.60;50.40
37300;DHT22;23184;51.902;12.836;2023-04-06T12:11:51;19.50;49.60
37300;DHT22;23184;51.902;12.836;2023-04-06T12:14:17;18.20;48.90
37300;DHT22;23184;51.902;12.836;2023-04-06T12:16:42;17.40;52.00
37300;DHT22;23184;51.902;12.836;2023-04-06T12:19:09;17.00;54.20
37300;DHT22;23184;51.902;12.836;2023-04-06T12:21:35;17.30;49.20
37300;DHT22;23184;51.902;12.836;2023-04-06T12:24:03;17.30;48.50
37300;DHT22;23184;51.902;12.836;2023-04-06T12:26:29;18.00;48.40
37300;DHT22;23184;51.902;12.836;2023-04-06T12:28:55;18.70;48.30
37300;DHT22;23184;51.902;12.836;2023-04-06T12:31:22;18.90;48.70
37300;DHT22;23184;51.902;12.836;2023-04-06T12:33:51;16.40;50.20
37300;DHT22;23184;51.902;12.836;2023-04-06T12:36:18;16.20;51.30
37300;DHT22;23184;51.902;12.836;2023-04-06T12:38:44;17.70;50.10
37300;DHT22;23184;51.902;12.836;2023-04-06T12:41:11;19.50;47.00
37300;DHT22;23184;51.902;12.836;2023-04-06T12:43:37;18.20;48.20
37300;DHT22;23184;51.902;12.836;2023-04-06T12:46:03;20.30;47.00
37300;DHT22;23184;51.902;12.836;2023-04-06T12:48:28;20.60;46.00
37300;DHT22;23184;51.902;12.836;2023-04-06T12:50:58;22.40;44.00
37300;DHT22;23184;51.902;12.836;2023-04-06T12:53:24;21.30;43.00
37300;DHT22;23184;51.902;12.836;2023-04-06T12:55:50;18.60;45.60
37300;DHT22;23184;51.902;12.836;2023-04-06T12:58:17;16.80;48.40
37300;DHT22;23184;51.902;12.836;2023-04-06T13:00:43;15.90;50.50
37300;DHT22;23184;51.902;12.836;2023-04-06T13:03:08;15.50;54.50
37300;DHT22;23184;51.902;12.836;2023-04-06T13:05:34;15.60;53.70
37300;DHT22;23184;51.902;12.836;2023-04-06T13:07:59;17.10;50.90
37300;DHT22;23184;51.902;12.836;2023-04-06T13:10:25;18.10;49.40
37300;DHT22;23184;51.902;12.836;2023-04-06T13:12:51;18.80;48.90
37300;DHT22;23184;51.902;12.836;2023-04-06T13:15:17;18.80;46.20
37300;DHT22;23184;51.902;12.836;2023-04-06T13:17:42;20.70;44.90
37300;DHT22;23184;51.902;12.836;2023-04-06T13:20:08;21.90;43.30
37300;DHT22;23184;51.902;12.836;2023-04-06T13:22:34;23.40;41.30
37300;DHT22;23184;51.902;12.836;2023-04-06T13:25:00;23.60;41.10
37300;DHT22;23184;51.902;12.836;2023-04-06T13:27:25;19.20;42.60
37300;DHT22;23184;51.902;12.836;2023-04-06T13:29:52;17.70;48.40
37300;DHT22;23184;51.902;12.836;2023-04-06T13:32:18;15.30;51.10
37300;DHT22;23184;51.902;12.836;2023-04-06T13:34:43;16.10;55.40
37300;DHT22;23184;51.902;12.836;2023-04-06T13:37:12;16.80;53.60
37300;DHT22;23184;51.902;12.836;2023-04-06T13:39:37;17.20;49.90
37300;DHT22;23184;51.902;12.836;2023-04-06T13:42:03;17.70;47.30
37300;DHT22;23184;51.902;12.836;2023-04-06T13:44:28;18.50;47.70
37300;DHT22;23184;51.902;12.836;2023-04-06T13:46:54;20.00;46.10
37300;DHT22;23184;51.902;12.836;2023-04-06T13:49:20;21.00;46.30
37300;DHT22;23184;51.902;12.836;2023-04-06T13:51:45;21.50;44.60
37300;DHT22;23184;51.902;12.836;2023-04-06T13:54:11;21.60;42.30
37300;DHT22;23184;51.902;12.836;2023-04-06T13:56:36;22.40;42.80
37300;DHT22;23184;51.902;12.836;2023-04-06T13:59:03;23.90;41.70
37300;DHT22;23184;51.902;12.836;2023-04-06T14:01:28;22.80;40.60
37300;DHT22;23184;51.902;12.836;2023-04-06T14:03:54;23.20;39.60
37300;DHT22;23184;51.902;12.836;2023-04-06T14:06:19;20.30;42.00
37300;DHT22;23184;51.902;12.836;2023-04-06T14:08:45;20.70;42.60
37300;DHT22;23184;51.902;12.836;2023-04-06T14:11:12;18.50;48.20
37300;DHT22;23184;51.902;12.836;2023-04-06T14:13:38;17.90;46.10
37300;DHT22;23184;51.902;12.836;2023-04-06T14:16:04;18.50;46.40
37300;DHT22;23184;51.902;12.836;2023-04-06T14:18:30;19.60;45.50
37300;DHT22;23184;51.902;12.836;2023-04-06T14:20:57;17.90;48.90
37300;DHT22;23184;51.902;12.836;2023-04-06T14:23:23;17.80;47.40
37300;DHT22;23184;51.902;12.836;2023-04-06T14:25:51;17.50;47.80
37300;DHT22;23184;51.902;12.836;2023-04-06T14:28:16;16.60;49.10
37300;DHT22;23184;51.902;12.836;2023-04-06T14:30:43;15.60;51.80
37300;DHT22;23184;51.902;12.836;2023-04-06T14:33:08;15.10;51.40
37300;DHT22;23184;51.902;12.836;2023-04-06T14:35:37;15.50;50.90
37300;DHT22;23184;51.902;12.836;2023-04-06T14:38:02;17.90;48.60
37300;DHT22;23184;51.902;12.836;2023-04-06T14:40:28;20.10;45.40
37300;DHT22;23184;51.902;12.836;2023-04-06T14:42:53;21.70;43.20
37300;DHT22;23184;51.902;12.836;2023-04-06T14:45:20;21.60;43.50
37300;DHT22;23184;51.902;12.836;2023-04-06T14:47:47;18.60;44.00
37300;DHT22;23184;51.902;12.836;2023-04-06T14:50:13;16.60;50.10
37300;DHT22;23184;51.902;12.836;2023-04-06T14:52:38;17.00;49.70
37300;DHT22;23184;51.902;12.836;2023-04-06T14:55:04;17.40;48.30
37300;DHT22;23184;51.902;12.836;2023-04-06T14:57:30;16.10;49.50
37300;DHT22;23184;51.902;12.836;2023-04-06T14:59:58;15.80;49.10
37300;DHT22;23184;51.902;12.836;2023-04-06T15:02:23;15.70;52.70
37300;DHT22;23184;51.902;12.836;2023-04-06T15:04:49;15.80;53.20
37300;DHT22;23184;51.902;12.836;2023-04-06T15:07:18;17.20;50.70
37300;DHT22;23184;51.902;12.836;2023-04-06T15:09:44;16.60;48.00
37300;DHT22;23184;51.902;12.836;2023-04-06T15:12:24;16.50;48.00
37300;DHT22;23184;51.902;12.836;2023-04-06T15:14:51;17.80;48.20
37300;DHT22;23184;51.902;12.836;2023-04-06T15:17:16;18.20;48.80
37300;DHT22;23184;51.902;12.836;2023-04-06T15:19:42;18.20;48.10